• Join FlightAware (Why Join?)
  • Login
  • US Flag 
07:35AM EDT


 

Airport Tracker/Info


-or-


 

Live Flight TrackerFlight Track Log ✈ CJT5268 ✈ 29-Apr-2013 ✈ CYOW - CYFB

Flight Track Log - Related Links

Times and Time Zones

All times are in EDT time to prevent confusion due to time zone crossing. See the CJT5268 flight status page for this flight to view local times or setup timezone preferences in your user account.

Time Position Orientation Groundspeed Altitude Reporting Facility
EDT Latitude Longitude Course Direction KTS MPH feet Rate Location/Type
10:44AM 45.2833 -75.7000 15° North 170 196 1,900  Level Montreal Center
10:45AM 45.2500 -75.7833 240° Southwest 210 242 3,700 2,040 Climbing Montreal Center
10:48AM 45.9490 -76.0059 13° North  Level FlightAware Approximate
10:49AM 46.0598 -75.9627 15° North  Level FlightAware Approximate
10:50AM 45.7330 -75.9870 240° Southwest 403 464 15,100  Level FlightAware
10:51AM 45.8180 -76.0110 349° North 410 472 16,900 2,160 Climbing FlightAware
10:52AM 45.8940 -76.0320 349° North 422 486 18,200 1,800 Climbing FlightAware
10:52AM 45.9830 -76.0170 North 441 507 19,500 1,860 Climbing FlightAware
10:53AM 46.0910 -75.9750 15° North 447 514 21,300 1,860 Climbing FlightAware
10:54AM 46.1910 -75.9360 15° North 454 522 22,800 1,740 Climbing FlightAware
10:55AM 46.2860 -75.8990 15° North 459 528 24,200 1,620 Climbing FlightAware
10:56AM 46.3760 -75.8650 15° North 463 533 25,300 1,380 Climbing FlightAware
10:56AM 46.4600 -75.8330 15° North 471 542 26,100 1,260 Climbing FlightAware
10:57AM 46.5570 -75.7990 14° North 478 550 27,100 1,380 Climbing FlightAware
10:58AM 46.6420 -75.7740 11° North 477 549 28,100 1,560 Climbing FlightAware
10:58AM 46.7200 -75.7520 11° North 473 544 29,100 1,560 Climbing FlightAware
10:59AM 46.8140 -75.7260 11° North 472 543 30,200 1,500 Climbing FlightAware
11:00AM 46.9030 -75.7000 11° North 469 540 31,300 720 Climbing FlightAware
11:00AM 46.9860 -75.6770 11° North 469 540 31,300 1,320 Level FlightAware
11:01AM 47.1140 -75.6400 11° North 449 517 33,700 1,440 Climbing FlightAware
11:02AM 47.1830 -75.6200 11° North 449 517 33,700  Level FlightAware
11:03AM 47.2520 -75.6010 11° North 449 517 33,700  Level FlightAware
11:03AM 47.3220 -75.5810 11° North 449 517 33,700  Level FlightAware
11:04AM 47.4080 -75.5560 11° North 449 517 33,700  Level FlightAware
11:05AM 47.4780 -75.5360 11° North 449 517 33,700  Level FlightAware
11:06AM 47.5470 -75.5160 11° North 449 517 33,700  Level FlightAware
11:06AM 47.6160 -75.4960 11° North 449 517 33,700  Level FlightAware
11:07AM 47.7030 -75.4710 11° North 449 517 33,700  Level FlightAware
11:08AM 47.7720 -75.4510 11° North 449 517 33,700  Level FlightAware
11:08AM 47.8420 -75.4310 11° North 449 517 33,700 900 Level FlightAware
11:09AM 48.0590 -75.3650 11° North 451 519 35,000 960 Climbing FlightAware
11:10AM 48.1250 -75.3460 11° North 451 519 35,000  Level FlightAware
11:10AM 48.2170 -75.3180 11° North 452 520 35,000  Level FlightAware
11:11AM 48.3220 -75.2880 11° North 452 520 35,000  Level FlightAware
11:12AM 48.3910 -75.2680 11° North 452 520 35,000  Level FlightAware
11:13AM 48.4610 -75.2470 11° North 452 520 35,000  Level FlightAware
11:13AM 48.5310 -75.2270 11° North 452 520 35,000  Level FlightAware
11:14AM 48.6010 -75.2060 11° North 452 520 35,000  Level FlightAware
11:15AM 48.6880 -75.1800 11° North 452 520 35,000  Level FlightAware
11:16AM 48.7580 -75.1600 11° North 452 520 35,000  Level FlightAware
11:16AM 48.8280 -75.1390 11° North 452 520 35,000  Level FlightAware
11:17AM 48.8970 -75.1190 11° North 452 520 35,000  Level FlightAware
11:18AM 48.9670 -75.0980 11° North 452 520 35,000  Level FlightAware
11:18AM 49.0370 -75.0770 11° North 452 520 35,000  Level FlightAware
11:19AM 49.1240 -75.0510 11° North 452 520 35,000  Level FlightAware
11:20AM 49.1940 -75.0310 11° North 452 520 35,000  Level FlightAware
11:21AM 49.5333 -74.9333 11° North 450 518 35,000  Level Montreal Center
11:22AM 49.6500 -74.9000 10° North 450 518 35,000  Level Montreal Center
11:23AM 49.7667 -74.8500 15° North 450 518 35,000  Level Montreal Center
11:24AM 49.9000 -74.8167 North 450 518 35,000  Level Montreal Center
11:25AM 50.0167 -74.7667 15° North 450 518 35,000  Level Montreal Center
11:26AM 50.1500 -74.7333 North 450 518 35,000  Level Montreal Center
11:27AM 50.2667 -74.7000 10° North 450 518 35,000  Level Montreal Center
11:28AM 50.4000 -74.6500 13° North 460 529 35,000  Level Montreal Center
11:29AM 50.5167 -74.6167 10° North 460 529 35,000  Level Montreal Center
11:30AM 50.6333 -74.5833 10° North 460 529 35,000  Level Montreal Center
11:31AM 50.7667 -74.5333 13° North 460 529 35,000  Level Montreal Center
11:32AM 50.8833 -74.5000 10° North 460 529 35,000  Level Montreal Center
11:33AM 51.0167 -74.4333 17° North 460 529 35,000  Level Montreal Center
11:34AM 51.1333 -74.4167 North 460 529 35,000  Level Montreal Center
11:35AM 51.2833 -74.3833 North 460 529 35,000  Level Montreal Center
11:36AM 51.4000 -74.3167 20° North 460 529 35,000  Level Montreal Center
11:37AM 51.5333 -74.2833 North 460 529 35,000  Level Montreal Center
11:38AM 51.6667 -74.2333 13° North 460 529 35,000  Level Montreal Center
11:39AM 51.7833 -74.2000 10° North 460 529 35,000  Level Montreal Center
11:40AM 51.9167 -74.1333 17° North 460 529 35,000  Level Montreal Center
11:41AM 52.0333 -74.1000 10° North 460 529 35,000  Level Montreal Center
11:42AM 52.1667 -74.0667 North 460 529 35,000  Level Montreal Center
11:43AM 52.2833 -74.0167 15° North 470 541 35,000  Level Montreal Center
11:44AM 52.4167 -73.9833 North 460 529 35,000  Level Montreal Center
11:45AM 52.5500 -73.9167 17° North 460 529 35,000  Level Montreal Center
11:46AM 52.6667 -73.8833 10° North 470 541 35,000  Level Montreal Center
11:47AM 52.8000 -73.8500 North 470 541 35,000  Level Montreal Center
11:48AM 52.9333 -73.7833 17° North 470 541 35,000  Level Montreal Center
11:49AM 53.0500 -73.7500 10° North 460 529 35,000  Level Montreal Center
11:50AM 53.1833 -73.6833 17° North 470 541 35,000  Level Montreal Center
11:51AM 53.3000 -73.6500 10° North 470 541 35,000  Level Montreal Center
11:52AM 53.4333 -73.6167 North 470 541 35,000  Level Montreal Center
11:53AM 53.5667 -73.5500 17° North 470 541 35,000  Level Montreal Center
11:54AM 53.7000 -73.5167 North 470 541 35,000  Level Montreal Center
11:55AM 53.8333 -73.4500 16° North 470 541 35,000  Level Montreal Center
11:56AM 53.9500 -73.4167 10° North 470 541 35,000  Level Montreal Center
11:57AM 54.0833 -73.3500 16° North 470 541 35,000  Level Montreal Center
11:58AM 54.2000 -73.3167 North 460 529 35,000  Level Montreal Center
11:59AM 54.3333 -73.2833 North 470 541 35,000  Level Montreal Center
12:00PM 54.4667 -73.2167 16° North 470 541 35,000  Level Montreal Center
12:01PM 54.5833 -73.1667 14° North 460 529 35,000  Level Montreal Center
12:02PM 54.7167 -73.1000 16° North 470 541 35,000  Level Montreal Center
12:03PM 54.8333 -73.0667 North 460 529 35,000  Level Montreal Center
12:04PM 54.9667 -73.0000 16° North 470 541 35,000  Level Montreal Center
12:05PM 55.0833 -72.9667 North 460 529 35,000  Level Montreal Center
12:06PM 55.2167 -72.9167 12° North 460 529 35,000  Level Montreal Center
12:07PM 55.3500 -72.8500 16° North 460 529 35,000  Level Montreal Center
12:08PM 55.4667 -72.8167 North 470 541 35,000  Level Montreal Center
12:09PM 55.6000 -72.7500 16° North 460 529 35,000  Level Montreal Center
12:10PM 55.7333 -72.7000 12° North 460 529 35,000  Level Montreal Center
12:11PM 55.8500 -72.6667 North 460 529 35,000  Level Montreal Center
12:12PM 55.9833 -72.5833 19° North 470 541 35,000  Level Montreal Center
12:13PM 56.1167 -72.5500 North 460 529 35,000  Level Montreal Center
12:14PM 56.2333 -72.4833 18° North 460 529 35,000  Level Montreal Center
12:15PM 56.3667 -72.4333 12° North 470 541 35,000  Level Montreal Center
12:16PM 56.5000 -72.4000 North 470 541 35,000  Level Montreal Center
12:17PM 56.6167 -72.3167 21° North 460 529 35,000  Level Montreal Center
12:18PM 56.7333 -72.2833 North 460 529 35,000  Level Montreal Center
12:19PM 56.8667 -72.2000 19° North 460 529 35,000  Level Montreal Center
12:20PM 57.0000 -72.1667 North 470 541 35,000  Level Montreal Center
12:21PM 57.1167 -72.1167 13° North 460 529 35,000  Level Montreal Center
12:22PM 57.2500 -72.0500 15° North 470 541 35,000  Level Montreal Center
12:23PM 57.3833 -72.0000 11° North 460 529 35,000  Level Montreal Center
12:24PM 57.5000 -71.9167 21° North 460 529 35,000  Level Montreal Center
12:25PM 57.6333 -71.8833 North 460 529 35,000  Level Montreal Center
12:26PM 57.7500 -71.8333 13° North 460 529 35,000  Level Montreal Center
12:27PM 57.8833 -71.7500 18° North 460 529 35,000  Level Montreal Center
12:28PM 58.0000 -71.7000 13° North 470 541 35,000  Level Montreal Center
12:29PM 58.1333 -71.6333 15° North 470 541 35,000  Level Montreal Center
12:30PM 58.2667 -71.5833 11° North 460 529 35,000  Level Montreal Center
12:31PM 58.3833 -71.5000 21° North 480 552 35,000  Level Montreal Center
12:32PM 58.5167 -71.4500 11° North 470 541 35,000  Level Montreal Center
12:33PM 58.6500 -71.4000 11° North 460 529 35,000  Level Montreal Center
12:34PM 58.7667 -71.3167 20° North 480 552 35,000  Level Montreal Center
12:35PM 58.8833 -71.2667 12° North 470 541 35,000  Level Montreal Center
12:36PM 59.0167 -71.1833 18° North 470 541 35,000  Level Montreal Center
12:37PM 59.1333 -71.1500 North 470 541 35,000  Level Montreal Center
12:38PM 59.2667 -71.0833 14° North 460 529 35,000  Level Montreal Center
12:39PM 59.4000 -71.0000 18° North 470 541 35,000  Level Montreal Center
12:40PM 59.5333 -70.9500 11° North 470 541 35,000  Level Montreal Center
12:41PM 59.6500 -70.8667 20° North 460 529 35,000  Level Montreal Center
12:42PM 59.7833 -70.8167 11° North 460 529 35,000  Level Montreal Center
12:43PM 59.9000 -70.7333 20° North 460 529 35,000  Level Montreal Center
12:44PM 60.0333 -70.6833 11° North 460 529 35,000  Level Montreal Center
12:45PM 60.1500 -70.6333 12° North 460 529 35,000  Level Montreal Center
12:46PM 60.2833 -70.5333 20° North 460 529 35,000  Level Montreal Center
12:47PM 60.4000 -70.4833 12° North 460 529 35,000  Level Montreal Center
12:48PM 60.5167 -70.4333 12° North 450 518 35,000  Level Montreal Center
12:49PM 60.6333 -70.3500 19° North 450 518 35,000  Level Montreal Center
12:50PM 60.7667 -70.2833 14° North 450 518 35,000  Level Montreal Center
12:51PM 60.8833 -70.2000 19° North 450 518 35,000  Level Montreal Center
12:52PM 61.0167 -70.1333 14° North 450 518 35,000  Level Montreal Center
12:53PM 61.1167 -70.0833 14° North 450 518 35,000  Level Montreal Center
12:54PM 61.2500 -70.0000 17° North 440 506 35,000  Level Montreal Center
12:55PM 61.3667 -69.9333 15° North 440 506 35,000  Level Montreal Center
12:56PM 61.4833 -69.8833 12° North 440 506 35,000  Level Montreal Center
12:57PM 61.6000 -69.7833 22° Northeast 440 506 35,000  Level Montreal Center
12:58PM 61.7167 -69.7333 11° North 440 506 35,000  Level Montreal Center
12:59PM 61.8333 -69.6667 15° North 440 506 35,000  Level Montreal Center
01:00PM 61.9500 -69.5667 22° Northeast 440 506 35,000  Level Montreal Center
01:01PM 62.0667 -69.5167 11° North 440 506 35,000  Level Montreal Center
01:02PM 62.2000 -69.4833 North 440 506 35,000  Level Montreal Center
01:03PM 62.3167 -69.4667 North 440 506 35,000 -120 Level Montreal Center
01:04PM 62.4500 -69.4000 13° North 440 506 34,800 -960 Descending Montreal Center
01:05PM 62.5667 -69.3667 North 440 506 33,100 -2,700 Descending Montreal Center
01:06PM 62.6833 -69.3167 11° North 440 506 29,500 -3,660 Descending Montreal Center
01:07PM 62.8000 -69.2833 North 430 495 25,800 -3,300 Descending Montreal Center
01:08PM 62.9167 -69.2667 North 430 495 22,900 -2,820 Descending Montreal Center
01:09PM 63.0333 -69.2000 15° North 410 472 20,200 -2,940 Descending Montreal Center
01:10PM 63.1333 -69.1667 North 400 460 17,100 -2,820 Descending Montreal Center
01:11PM 63.2333 -69.1500 North 390 449 14,600 -2,580 Descending Montreal Center
01:12PM 63.3500 -69.0833 14° North 390 449 12,000 -2,100 Descending Montreal Center
01:13PM 63.4500 -69.0667 North 380 437 10,500 -1,020 Descending Montreal Center
01:14PM 63.5500 -69.0333 North 350 403 10,000 -660 Descending Montreal Center
01:15PM 63.6167 -69.0333 360° North 300 345 9,200 -1,080 Descending Montreal Center
01:16PM 63.7000 -68.9667 20° North 290 334 7,900 -1,260 Descending Montreal Center
01:17PM 63.7833 -68.9500 North 280 322 6,700 -1,020 Descending Montreal Center
01:18PM 63.8500 -68.9333 North 260 299 5,900 -1,320 Descending Montreal Center
01:19PM 63.9000 -68.9167 North 220 253 4,100 -1,560 Descending Montreal Center
01:20PM 63.9333 -68.8333 48° Northeast 170 196 2,800 -900 Descending Montreal Center
01:21PM 63.9000 -68.7667 139° Southeast 130 150 2,300 -360 Descending Montreal Center
01:22PM 63.8667 -68.7000 139° Southeast 120 138 2,100 -240 Descending Montreal Center
01:23PM 63.8500 -68.6667 139° Southeast 120 138 1,900 -420 Descending Montreal Center
01:24PM 63.8333 -68.6000 120° Southeast 120 138 1,300 -660 Descending Montreal Center
01:25PM 63.8000 -68.5667 156° South 120 138 600 -720 Descending Montreal Center